Time;durP1;ratioP1;P1;durP2;ratioP2;P2;SDS_P1;SDS_P2;PMS_P1;PMS_P2;Temp;Humidity;BMP_temperature;BMP_pressure;BME280_temperature;BME280_humidity;BME280_pressure;Samples;Min_cycle;Max_cycle;Signal;HPM_P1;HPM_P2
2022/03/12 00:01:14;;;;;;;;;;;39.00;1382.40;;;;;;6219412;23;19922;-91
2022/03/12 00:03:40;;;;;;;;;;;39.00;1408.00;;;;;;6192940;23;20305;-89
2022/03/12 00:06:07;;;;;;;;;;;39.10;1408.00;;;;;;6192833;23;19900;-91
2022/03/12 00:08:43;;;;;;;;;;;39.00;1408.00;;;;;;6219386;23;19900;-91
2022/03/12 00:11:15;;;;;;;;;;;39.10;1433.60;;;;;;6192820;23;20323;-90
2022/03/12 00:13:41;;;;;;;;;;;39.00;1408.00;;;;;;6192552;23;19954;-91
2022/03/12 00:16:13;;;;;;;;;;;39.10;1433.60;;;;;;6192362;23;19903;-90
2022/03/12 00:18:41;;;;;;;;;;;39.00;1433.60;;;;;;6219275;23;19899;-91
2022/03/12 00:21:08;;;;;;;;;;;39.00;1433.60;;;;;;6192536;23;19954;-91
2022/03/12 00:23:34;;;;;;;;;;;39.00;1433.60;;;;;;6192554;23;19900;-92
2022/03/12 00:26:01;;;;;;;;;;;39.10;1408.00;;;;;;6192620;23;19955;-91
2022/03/12 00:28:26;;;;;;;;;;;39.10;1433.60;;;;;;6192669;23;19911;-91
2022/03/12 00:30:52;;;;;;;;;;;39.00;1433.60;;;;;;6192629;23;19900;-91
2022/03/12 00:33:19;;;;;;;;;;;39.10;1433.60;;;;;;6192688;23;19911;-90
2022/03/12 00:35:50;;;;;;;;;;;39.10;1433.60;;;;;;6205599;23;20337;-90
2022/03/12 00:38:16;;;;;;;;;;;39.20;1433.60;;;;;;6222903;23;19900;-90
2022/03/12 00:40:43;;;;;;;;;;;39.30;1484.80;;;;;;6249414;23;19900;-92
2022/03/12 00:43:09;;;;;;;;;;;39.30;1459.20;;;;;;6249503;23;19899;-91
2022/03/12 00:45:35;;;;;;;;;;;39.30;1459.20;;;;;;6222598;23;19900;-91
2022/03/12 00:48:01;;;;;;;;;;;39.30;1459.20;;;;;;6248727;23;19900;-91
2022/03/12 00:50:27;;;;;;;;;;;39.30;1459.20;;;;;;6221997;23;19957;-92
2022/03/12 00:52:53;;;;;;;;;;;64.00;1484.80;;;;;;6222385;23;19907;-92
2022/03/12 00:55:18;;;;;;;;;;;64.00;1484.80;;;;;;6249089;23;19903;-92
2022/03/12 00:57:44;;;;;;;;;;;64.00;1484.80;;;;;;6222294;23;19949;-92
2022/03/12 01:00:15;;;;;;;;;;;64.10;1510.40;;;;;;6222516;23;19899;-92
2022/03/12 01:02:40;;;;;;;;;;;64.10;1484.80;;;;;;6222363;23;19899;-91
2022/03/12 01:05:06;;;;;;;;;;;64.20;1484.80;;;;;;6222390;23;20343;-87
2022/03/12 01:07:33;;;;;;;;;;;64.20;1510.40;;;;;;6221501;23;19906;-91
2022/03/12 01:09:59;;;;;;;;;;;64.30;1510.40;;;;;;6248973;23;19977;-91
2022/03/12 01:12:25;;;;;;;;;;;64.30;1536.00;;;;;;6222216;23;19907;-91
2022/03/12 01:14:50;;;;;;;;;;;64.30;1536.00;;;;;;6222329;23;19899;-91
2022/03/12 01:17:16;;;;;;;;;;;64.20;1536.00;;;;;;6222222;23;19903;-92
2022/03/12 01:19:42;;;;;;;;;;;64.20;1510.40;;;;;;6249186;23;19899;-91
2022/03/12 01:22:10;;;;;;;;;;;64.20;1536.00;;;;;;6222160;23;19900;-88
2022/03/12 01:24:37;;;;;;;;;;;64.20;1536.00;;;;;;6222133;23;19906;-91
2022/03/12 01:27:02;;;;;;;;;;;64.30;1510.40;;;;;;6221979;23;19903;-87
2022/03/12 01:29:28;;;;;;;;;;;64.20;1536.00;;;;;;6221983;23;19900;-91
2022/03/12 01:31:54;;;;;;;;;;;64.30;1536.00;;;;;;6222063;23;20360;-91
2022/03/12 01:34:20;;;;;;;;;;;64.30;1561.60;;;;;;6248908;23;19907;-91
2022/03/12 01:36:45;;;;;;;;;;;64.30;1536.00;;;;;;6221819;23;19911;-92
2022/03/12 01:39:12;;;;;;;;;;;64.30;1536.00;;;;;;6248959;23;19899;-90
2022/03/12 01:41:42;;;;;;;;;;;64.40;1561.60;;;;;;6221605;23;20332;-88
2022/03/12 01:44:08;;;;;;;;;;;64.50;1561.60;;;;;;6221767;23;19970;-90
2022/03/12 01:46:35;;;;;;;;;;;64.40;1561.60;;;;;;6222016;23;19899;-89
2022/03/12 01:49:12;;;;;;;;;;;64.50;1561.60;;;;;;6221289;23;19900;-91
2022/03/12 01:51:38;;;;;;;;;;;64.50;1561.60;;;;;;6221535;23;19906;-91
2022/03/12 01:54:05;;;;;;;;;;;64.50;1561.60;;;;;;6221539;23;19975;-90
2022/03/12 01:56:30;;;;;;;;;;;64.60;1587.20;;;;;;6221957;23;19900;-90
2022/03/12 01:59:01;;;;;;;;;;;64.60;1587.20;;;;;;6220955;23;19904;-91
2022/03/12 02:01:28;;;;;;;;;;;64.60;1587.20;;;;;;6248697;23;19903;-88
2022/03/12 02:03:54;;;;;;;;;;;64.60;1561.60;;;;;;6221811;23;20309;-91
2022/03/12 02:06:21;;;;;;;;;;;64.80;1612.80;;;;;;6221756;23;19899;-91
2022/03/12 02:08:53;;;;;;;;;;;64.70;1612.80;;;;;;6221615;23;20198;-91
2022/03/12 02:11:28;;;;;;;;;;;64.70;1638.40;;;;;;6221575;23;19903;-91
2022/03/12 02:13:59;;;;;;;;;;;64.70;1587.20;;;;;;6221486;23;19929;-91
2022/03/12 02:16:26;;;;;;;;;;;64.70;1587.20;;;;;;6221471;23;20357;-92
2022/03/12 02:18:51;;;;;;;;;;;64.70;1612.80;;;;;;6221701;23;19903;-92
2022/03/12 02:21:40;;;;;;;;;;;64.70;1638.40;;;;;;6221627;23;19950;-91
2022/03/12 02:24:09;;;;;;;;;;;64.70;1638.40;;;;;;6220622;23;19899;-91
2022/03/12 02:26:38;;;;;;;;;;;64.70;1612.80;;;;;;6221024;23;19922;-91
2022/03/12 02:29:09;;;;;;;;;;;64.60;1664.00;;;;;;6221448;23;19945;-93
2022/03/12 02:31:36;;;;;;;;;;;64.70;1638.40;;;;;;6221535;23;19904;-87
2022/03/12 02:34:02;;;;;;;;;;;64.60;1638.40;;;;;;6221283;23;19911;-88
2022/03/12 02:36:29;;;;;;;;;;;64.70;1638.40;;;;;;6221239;23;19911;-92
2022/03/12 02:38:55;;;;;;;;;;;64.70;1638.40;;;;;;6221408;23;19900;-92
2022/03/12 02:41:24;;;;;;;;;;;64.80;1638.40;;;;;;6221452;23;20443;-92
2022/03/12 02:43:49;;;;;;;;;;;64.90;1689.60;;;;;;6221220;23;19925;-91
2022/03/12 02:46:15;;;;;;;;;;;64.90;1689.60;;;;;;6221393;23;19935;-88
2022/03/12 02:48:47;;;;;;;;;;;89.60;1715.20;;;;;;6221251;23;19900;-93
2022/03/12 02:51:12;;;;;;;;;;;64.90;1689.60;;;;;;6221377;23;19899;-87
2022/03/12 02:53:38;;;;;;;;;;;64.90;1689.60;;;;;;6221239;23;19907;-88
2022/03/12 02:56:04;;;;;;;;;;;89.60;1715.20;;;;;;6248236;23;19900;-88
2022/03/12 02:58:29;;;;;;;;;;;64.80;1689.60;;;;;;6247438;23;19900;-93
2022/03/12 03:00:57;;;;;;;;;;;64.80;1689.60;;;;;;6221222;23;19906;-88
2022/03/12 03:03:22;;;;;;;;;;;64.80;1715.20;;;;;;6221232;23;19906;-93
2022/03/12 03:05:48;;;;;;;;;;;64.80;1689.60;;;;;;6221195;23;19899;-93
2022/03/12 03:08:18;;;;;;;;;;;64.80;1689.60;;;;;;6221129;23;19907;-88
2022/03/12 03:10:45;;;;;;;;;;;64.70;1689.60;;;;;;6221273;23;19906;-94
2022/03/12 03:13:17;;;;;;;;;;;64.70;1638.40;;;;;;6220786;23;20297;-92
2022/03/12 03:15:46;;;;;;;;;;;64.90;1638.40;;;;;;6221377;23;19899;-91
2022/03/12 03:18:13;;;;;;;;;;;64.90;1689.60;;;;;;6221333;23;20305;-92
2022/03/12 03:20:39;;;;;;;;;;;64.90;1689.60;;;;;;6248033;23;19907;-93
2022/03/12 03:23:06;;;;;;;;;;;89.60;1689.60;;;;;;6221162;23;19899;-90
2022/03/12 03:25:32;;;;;;;;;;;89.70;1689.60;;;;;;6221056;23;19900;-91
2022/03/12 03:27:57;;;;;;;;;;;89.80;1638.40;;;;;;6247752;23;19923;-92
2022/03/12 03:30:23;;;;;;;;;;;89.80;1664.00;;;;;;6247719;23;19907;-92
2022/03/12 03:32:49;;;;;;;;;;;89.80;1664.00;;;;;;6220908;23;19908;-92
2022/03/12 03:35:15;;;;;;;;;;;89.70;1664.00;;;;;;6214131;23;19908;-93
2022/03/12 03:37:40;;;;;;;;;;;89.80;1664.00;;;;;;6191021;23;19900;-92
2022/03/12 03:40:07;;;;;;;;;;;89.60;1689.60;;;;;;6217499;23;19904;-92
2022/03/12 03:42:33;;;;;;;;;;;89.70;1638.40;;;;;;6190832;23;19907;-92
2022/03/12 03:45:02;;;;;;;;;;;89.60;1664.00;;;;;;6216843;23;19900;-89
2022/03/12 03:47:28;;;;;;;;;;;89.70;1638.40;;;;;;6190865;23;19904;-92
2022/03/12 03:49:54;;;;;;;;;;;89.70;1638.40;;;;;;6190342;23;19979;-91
2022/03/12 03:52:20;;;;;;;;;;;89.60;1689.60;;;;;;6190684;23;19903;-87
2022/03/12 03:54:46;;;;;;;;;;;89.70;1664.00;;;;;;6190636;23;19923;-91
2022/03/12 03:57:13;;;;;;;;;;;89.80;1664.00;;;;;;6217303;23;19907;-91
2022/03/12 03:59:39;;;;;;;;;;;89.80;1664.00;;;;;;6190609;23;19970;-87
2022/03/12 04:02:05;;;;;;;;;;;89.80;1664.00;;;;;;6190791;23;19900;-92
2022/03/12 04:04:35;;;;;;;;;;;89.80;1664.00;;;;;;6190651;23;19900;-93
2022/03/12 04:07:01;;;;;;;;;;;89.70;1664.00;;;;;;6190698;23;19900;-94
2022/03/12 04:09:27;;;;;;;;;;;89.80;1664.00;;;;;;6190719;23;19903;-88
2022/03/12 04:11:53;;;;;;;;;;;89.70;1664.00;;;;;;6190586;23;19959;-92
2022/03/12 04:14:18;;;;;;;;;;;89.70;1664.00;;;;;;6216568;23;19915;-93
2022/03/12 04:16:44;;;;;;;;;;;89.80;1664.00;;;;;;6190709;23;19907;-92
2022/03/12 04:19:11;;;;;;;;;;;89.80;1664.00;;;;;;6190767;23;19974;-93
2022/03/12 04:21:36;;;;;;;;;;;89.80;1664.00;;;;;;6191301;23;19990;-90
2022/03/12 04:24:02;;;;;;;;;;;89.80;1664.00;;;;;;6192527;23;20202;-88
2022/03/12 04:26:30;;;;;;;;;;;89.90;1689.60;;;;;;6192524;23;19904;-87
2022/03/12 04:28:58;;;;;;;;;;;89.90;1689.60;;;;;;6218994;23;19953;-93
2022/03/12 04:31:23;;;;;;;;;;;89.70;1689.60;;;;;;6218857;23;20317;-87
2022/03/12 04:33:49;;;;;;;;;;;89.80;1689.60;;;;;;6192392;23;19991;-92
2022/03/12 04:36:15;;;;;;;;;;;89.80;1689.60;;;;;;6211391;23;19912;-87
2022/03/12 04:38:41;;;;;;;;;;;89.80;1689.60;;;;;;6222751;23;19950;-90
2022/03/12 04:41:08;;;;;;;;;;;89.80;1689.60;;;;;;6222655;23;19903;-90
2022/03/12 04:43:33;;;;;;;;;;;90.10;1689.60;;;;;;6222282;23;19970;-88
2022/03/12 04:46:00;;;;;;;;;;;89.80;1689.60;;;;;;6248972;23;20280;-87
2022/03/12 04:48:26;;;;;;;;;;;89.80;1689.60;;;;;;6222289;23;19907;-93
2022/03/12 04:50:52;;;;;;;;;;;89.80;1689.60;;;;;;6222165;23;19899;-93
2022/03/12 04:53:19;;;;;;;;;;;89.90;1689.60;;;;;;6222207;23;19911;-87
2022/03/12 04:55:45;;;;;;;;;;;89.80;1715.20;;;;;;6249026;23;19899;-93
2022/03/12 04:58:12;;;;;;;;;;;90.00;1715.20;;;;;;6248933;23;19942;-88
2022/03/12 05:00:39;;;;;;;;;;;90.00;1715.20;;;;;;6222352;23;19899;-87
2022/03/12 05:03:09;;;;;;;;;;;90.10;1715.20;;;;;;6222154;23;19899;-87
2022/03/12 05:05:40;;;;;;;;;;;90.00;1715.20;;;;;;6222326;23;19899;-86
2022/03/12 05:08:10;;;;;;;;;;;90.00;1740.80;;;;;;6222120;23;19900;-87
2022/03/12 05:10:36;;;;;;;;;;;89.90;1740.80;;;;;;6222136;23;19899;-92
2022/03/12 05:13:02;;;;;;;;;;;90.00;1715.20;;;;;;6221458;23;19907;-89
2022/03/12 05:15:32;;;;;;;;;;;89.90;1740.80;;;;;;6221937;23;19931;-88
2022/03/12 05:17:58;;;;;;;;;;;89.90;1715.20;;;;;;6222173;23;19900;-88
2022/03/12 05:20:25;;;;;;;;;;;89.90;1740.80;;;;;;6248689;23;19906;-92
2022/03/12 05:22:51;;;;;;;;;;;89.90;1715.20;;;;;;6222049;23;19931;-89
2022/03/12 05:25:18;;;;;;;;;;;89.80;1715.20;;;;;;6221945;23;19910;-90
2022/03/12 05:27:48;;;;;;;;;;;89.80;1715.20;;;;;;6221959;23;19975;-92
2022/03/12 05:30:13;;;;;;;;;;;89.80;1715.20;;;;;;6222063;23;19922;-91
2022/03/12 05:32:39;;;;;;;;;;;89.80;1689.60;;;;;;6222042;23;20313;-92
2022/03/12 05:35:06;;;;;;;;;;;89.80;1715.20;;;;;;6248538;23;19943;-87
2022/03/12 05:37:32;;;;;;;;;;;89.80;1715.20;;;;;;6248680;23;19899;-93
2022/03/12 05:39:58;;;;;;;;;;;89.60;1740.80;;;;;;6221272;23;19906;-86
2022/03/12 05:42:24;;;;;;;;;;;64.90;1740.80;;;;;;6221878;23;19900;-92
2022/03/12 05:44:50;;;;;;;;;;;64.90;1715.20;;;;;;6248271;23;20369;-87
2022/03/12 05:47:17;;;;;;;;;;;89.60;1715.20;;;;;;6221789;23;19958;-89
2022/03/12 05:49:43;;;;;;;;;;;64.90;1715.20;;;;;;6221987;23;19900;-93
2022/03/12 05:52:09;;;;;;;;;;;64.90;1715.20;;;;;;6221925;23;19935;-87
2022/03/12 05:54:36;;;;;;;;;;;64.80;1715.20;;;;;;6222217;23;20313;-87
2022/03/12 05:57:02;;;;;;;;;;;64.80;1689.60;;;;;;6221990;23;19907;-91
2022/03/12 05:59:28;;;;;;;;;;;64.90;1689.60;;;;;;6221793;23;20246;-92
2022/03/12 06:01:53;;;;;;;;;;;64.80;1689.60;;;;;;6221488;23;19899;-93
2022/03/12 06:04:25;;;;;;;;;;;64.80;1715.20;;;;;;6221708;23;19906;-87
2022/03/12 06:06:51;;;;;;;;;;;64.80;1715.20;;;;;;6221816;23;19907;-91
2022/03/12 06:09:18;;;;;;;;;;;64.70;1715.20;;;;;;6221689;23;19907;-87
2022/03/12 06:11:44;;;;;;;;;;;64.60;1689.60;;;;;;6248329;23;19906;-91
2022/03/12 06:14:15;;;;;;;;;;;64.50;1689.60;;;;;;6221335;23;19911;-93
2022/03/12 06:16:43;;;;;;;;;;;64.50;1715.20;;;;;;6221620;23;19900;-88
2022/03/12 06:19:09;;;;;;;;;;;64.40;1715.20;;;;;;6221611;23;19900;-88
2022/03/12 06:21:35;;;;;;;;;;;64.40;1689.60;;;;;;6221432;23;19978;-87
2022/03/12 06:24:02;;;;;;;;;;;64.30;1664.00;;;;;;6221622;23;19942;-92
2022/03/12 06:26:31;;;;;;;;;;;64.30;1664.00;;;;;;6221487;23;20210;-94
2022/03/12 06:28:58;;;;;;;;;;;64.20;1689.60;;;;;;6221401;23;19931;-92
2022/03/12 06:31:24;;;;;;;;;;;64.20;1664.00;;;;;;6248103;23;19945;-95
2022/03/12 06:33:50;;;;;;;;;;;64.10;1689.60;;;;;;6221301;23;20244;-92
2022/03/12 06:36:16;;;;;;;;;;;64.00;1689.60;;;;;;6221270;23;19911;-93
2022/03/12 06:38:42;;;;;;;;;;;39.30;1664.00;;;;;;6247927;23;19900;-94
2022/03/12 06:41:07;;;;;;;;;;;39.30;1689.60;;;;;;6221504;23;19903;-89
2022/03/12 06:43:34;;;;;;;;;;;39.20;1664.00;;;;;;6221245;23;19945;-94
2022/03/12 06:46:01;;;;;;;;;;;39.20;1664.00;;;;;;6221100;23;19939;-93
2022/03/12 06:48:28;;;;;;;;;;;39.20;1689.60;;;;;;6247938;23;19904;-89
2022/03/12 06:50:55;;;;;;;;;;;39.10;1664.00;;;;;;6221420;23;19970;-93
2022/03/12 06:53:21;;;;;;;;;;;39.00;1638.40;;;;;;6221040;23;19914;-94
2022/03/12 06:55:47;;;;;;;;;;;39.00;1638.40;;;;;;6221419;23;19903;-90
2022/03/12 06:58:12;;;;;;;;;;;38.90;1612.80;;;;;;6221359;23;19900;-92
2022/03/12 07:00:38;;;;;;;;;;;38.80;1612.80;;;;;;6221577;23;19899;-91
2022/03/12 07:03:04;;;;;;;;;;;38.70;1612.80;;;;;;6221333;23;19899;-94
2022/03/12 07:05:30;;;;;;;;;;;38.60;1587.20;;;;;;6221118;23;19952;-88
2022/03/12 07:07:56;;;;;;;;;;;38.50;1587.20;;;;;;6220994;23;19899;-94
2022/03/12 07:10:22;;;;;;;;;;;38.40;1587.20;;;;;;6221388;23;19899;-94
2022/03/12 07:12:48;;;;;;;;;;;13.50;1561.60;;;;;;6221223;23;19990;-89
2022/03/12 07:15:15;;;;;;;;;;;13.50;1536.00;;;;;;6221092;23;19907;-92
2022/03/12 07:17:42;;;;;;;;;;;13.40;1536.00;;;;;;6246501;23;19947;-94
2022/03/12 07:20:08;;;;;;;;;;;13.30;1510.40;;;;;;6221166;23;19954;-89
2022/03/12 07:22:34;;;;;;;;;;;13.20;1510.40;;;;;;6221218;23;20309;-89
2022/03/12 07:25:00;;;;;;;;;;;13.10;1484.80;;;;;;6221001;23;19984;-89
2022/03/12 07:27:25;;;;;;;;;;;12.90;1484.80;;;;;;6220609;23;19899;-90
2022/03/12 07:29:52;;;;;;;;;;;0.00;1459.20;;;;;;6247582;23;19907;-92
2022/03/12 07:32:17;;;;;;;;;;;0.30;1459.20;;;;;;6221049;23;19904;-91
2022/03/12 07:34:43;;;;;;;;;;;0.30;1433.60;;;;;;6247202;23;19994;-92
2022/03/12 07:37:11;;;;;;;;;;;0.50;1433.60;;;;;;6221094;23;19912;-89
2022/03/12 07:39:37;;;;;;;;;;;0.70;1408.00;;;;;;6220846;23;19910;-91
2022/03/12 07:42:03;;;;;;;;;;;25.70;1382.40;;;;;;6220857;23;19925;-92
2022/03/12 07:44:29;;;;;;;;;;;26.00;1331.20;;;;;;6221001;23;19927;-89
2022/03/12 07:46:55;;;;;;;;;;;26.10;1612.80;;;;;;6221074;23;19899;-92
2022/03/12 07:49:23;;;;;;;;;;;26.20;1331.20;;;;;;6221705;22;20336;-81
2022/03/12 07:51:50;;;;;;;;;;;26.40;1305.60;;;;;;6240285;23;19946;-85
2022/03/12 07:54:16;;;;;;;;;;;51.30;1382.40;;;;;;6267746;23;19891;-82
2022/03/12 07:56:42;;;;;;;;;;;51.50;1331.20;;;;;;6215175;23;19935;-83
2022/03/12 07:59:09;;;;;;;;;;;51.80;1280.00;;;;;;6269009;23;19900;-84
2022/03/12 08:01:34;;;;;;;;;;;52.10;1228.80;;;;;;6217327;23;19952;-83
2022/03/12 08:04:02;;;;;;;;;;;77.00;1203.20;;;;;;6242263;23;19899;-81
2022/03/12 08:06:30;;;;;;;;;;;77.30;1177.60;;;;;;6216862;23;19903;-84
2022/03/12 08:09:01;;;;;;;;;;;77.70;1152.00;;;;;;6267964;23;19926;-85
2022/03/12 08:11:34;;;;;;;;;;;102.70;1100.80;;;;;;6242739;23;19907;-85
2022/03/12 08:14:07;;;;;;;;;;;103.10;1075.20;;;;;;6241292;23;19912;-84
2022/03/12 08:16:34;;;;;;;;;;;128.20;1100.80;;;;;;6236178;23;19903;-81
2022/03/12 08:19:08;;;;;;;;;;;128.60;1126.40;;;;;;6212791;23;19998;-81
2022/03/12 08:21:35;;;;;;;;;;;153.60;1075.20;;;;;;6240272;23;19907;-83
2022/03/12 08:24:09;;;;;;;;;;;154.00;998.40;;;;;;6267568;23;19906;-80
2022/03/12 08:26:35;;;;;;;;;;;;;;;;;;6234676;23;19941;-83
2022/03/12 08:29:01;;;;;;;;;;;180.10;896.00;;;;;;6260919;23;20355;-79
2022/03/12 08:31:29;;;;;;;;;;;282.50;742.40;;;;;;6263753;23;19900;-81
2022/03/12 08:34:24;;;;;;;;;;;333.30;716.80;;;;;;6234250;22;19887;-78
2022/03/12 08:36:50;;;;;;;;;;;384.10;614.40;;;;;;6103696;23;19908;-82
2022/03/12 08:39:16;;;;;;;;;;;410.40;614.40;;;;;;6072730;23;20283;-83
2022/03/12 08:41:42;;;;;;;;;;;435.90;563.20;;;;;;6071123;23;19908;-82
2022/03/12 08:44:09;;;;;;;;;;;461.50;588.80;;;;;;6072277;23;20021;-81
2022/03/12 08:46:35;;;;;;;;;;;486.70;563.20;;;;;;6071258;23;19932;-81
2022/03/12 08:49:01;;;;;;;;;;;537.90;512.00;;;;;;6094413;23;20323;-80
2022/03/12 08:51:26;;;;;;;;;;;538.20;460.80;;;;;;6095197;23;19913;-79
2022/03/12 08:53:52;;;;;;;;;;;563.60;486.40;;;;;;6070904;23;20051;-82
2022/03/12 08:56:18;;;;;;;;;;;563.70;486.40;;;;;;6096023;23;19905;-79
2022/03/12 08:58:44;;;;;;;;;;;589.00;435.20;;;;;;6072596;23;20028;-80
2022/03/12 09:01:10;;;;;;;;;;;614.40;435.20;;;;;;6072394;23;19933;-82
2022/03/12 09:03:36;;;;;;;;;;;615.10;409.60;;;;;;6096759;23;19901;-82
2022/03/12 09:06:02;;;;;;;;;;;640.10;384.00;;;;;;6072444;23;20307;-83
2022/03/12 09:08:28;;;;;;;;;;;640.50;384.00;;;;;;6096229;23;19905;-80
2022/03/12 09:10:55;;;;;;;;;;;665.60;384.00;;;;;;6096571;23;19901;-80
2022/03/12 09:13:21;;;;;;;;;;;666.10;384.00;;;;;;6114234;23;19907;-81
2022/03/12 09:15:47;;;;;;;;;;;691.30;358.40;;;;;;6217371;23;19899;-82
2022/03/12 09:18:13;;;;;;;;;;;691.90;332.80;;;;;;6217294;23;20237;-83
2022/03/12 09:20:47;;;;;;;;;;;717.10;332.80;;;;;;6191176;23;19935;-83
2022/03/12 09:23:14;;;;;;;;;;;742.40;358.40;;;;;;6190923;23;19946;-81
2022/03/12 09:25:40;;;;;;;;;;;742.90;332.80;;;;;;6190881;23;20276;-82
2022/03/12 09:28:07;;;;;;;;;;;768.20;332.80;;;;;;6215896;23;20327;-84
2022/03/12 09:30:32;;;;;;;;;;;793.60;332.80;;;;;;6190552;23;19958;-82
2022/03/12 09:32:58;;;;;;;;;;;794.10;332.80;;;;;;6215744;23;19907;-83
2022/03/12 09:35:24;;;;;;;;;;;819.70;307.20;;;;;;6190908;23;19904;-81
2022/03/12 09:37:50;;;;;;;;;;;819.40;307.20;;;;;;6215741;23;20279;-82
2022/03/12 09:40:16;;;;;;;;;;;819.90;281.60;;;;;;6217042;23;19962;-81
2022/03/12 09:42:42;;;;;;;;;;;844.80;307.20;;;;;;6190540;23;19900;-83
2022/03/12 09:45:08;;;;;;;;;;;819.80;281.60;;;;;;6217376;23;19900;-83
2022/03/12 09:47:33;;;;;;;;;;;845.00;281.60;;;;;;6217326;23;19915;-83
2022/03/12 09:49:59;;;;;;;;;;;870.40;281.60;;;;;;6225325;23;19922;-83
2022/03/12 09:52:25;;;;;;;;;;;870.60;281.60;;;;;;6220665;23;19906;-82
2022/03/12 09:54:51;;;;;;;;;;;871.10;256.00;;;;;;6220833;23;19908;-84
2022/03/12 09:57:16;;;;;;;;;;;871.10;256.00;;;;;;6220804;23;19900;-83
2022/03/12 09:59:42;;;;;;;;;;;896.10;256.00;;;;;;6247642;23;19900;-83
2022/03/12 10:02:08;;;;;;;;;;;896.90;256.00;;;;;;6220441;23;19900;-83
2022/03/12 10:04:34;;;;;;;;;;;922.10;281.60;;;;;;6220521;23;19914;-83
2022/03/12 10:07:00;;;;;;;;;;;947.30;281.60;;;;;;6247193;23;19935;-82
2022/03/12 10:09:25;;;;;;;;;;;947.40;281.60;;;;;;6220306;23;19986;-83
2022/03/12 10:11:51;;;;;;;;;;;947.60;281.60;;;;;;6220439;23;19906;-82
2022/03/12 10:14:17;;;;;;;;;;;947.80;281.60;;;;;;6220383;23;20232;-83
2022/03/12 10:16:43;;;;;;;;;;;972.90;307.20;;;;;;6220536;23;19899;-83
2022/03/12 10:19:09;;;;;;;;;;;972.80;307.20;;;;;;6220047;23;20343;-83
2022/03/12 10:21:42;;;;;;;;;;;948.00;281.60;;;;;;6220369;23;19899;-82
2022/03/12 10:24:11;;;;;;;;;;;973.30;307.20;;;;;;6220364;23;19908;-84
2022/03/12 10:26:38;;;;;;;;;;;998.40;332.80;;;;;;6220305;23;20229;-83
2022/03/12 10:29:04;;;;;;;;;;;973.70;307.20;;;;;;6220514;23;20358;-85
2022/03/12 10:31:30;;;;;;;;;;;947.20;281.60;;;;;;6220361;23;19925;-85
2022/03/12 10:34:32;;;;;;;;;;;819.70;281.60;;;;;;6220469;23;19899;-83
2022/03/12 10:36:58;;;;;;;;;;;692.10;281.60;;;;;;6095757;23;19902;-81
2022/03/12 10:39:34;;;;;;;;;;;589.70;332.80;;;;;;6071387;23;20212;-83
2022/03/12 10:42:01;;;;;;;;;;;563.40;384.00;;;;;;6071664;23;19909;-81
2022/03/12 10:44:44;;;;;;;;;;;512.30;384.00;;;;;;6071447;23;19955;-82
2022/03/12 10:47:19;;;;;;;;;;;461.50;435.20;;;;;;6071885;23;19972;-82
2022/03/12 10:49:58;;;;;;;;;;;435.60;460.80;;;;;;6095795;23;20343;-82
2022/03/12 10:52:32;;;;;;;;;;;435.30;460.80;;;;;;6071833;23;20087;-83
2022/03/12 10:54:58;;;;;;;;;;;410.30;486.40;;;;;;6071689;23;19937;-84
2022/03/12 10:57:24;;;;;;;;;;;410.00;486.40;;;;;;6072168;23;19924;-83
2022/03/12 10:59:50;;;;;;;;;;;;;;;;;;6095850;23;19908;-82
2022/03/12 11:02:15;;;;;;;;;;;384.90;512.00;;;;;;6071612;23;19901;-84
2022/03/12 11:04:41;;;;;;;;;;;;;;;;;;6071918;23;19932;-82
2022/03/12 11:07:08;;;;;;;;;;;;;;;;;;6095818;23;20295;-83
2022/03/12 11:09:34;;;;;;;;;;;;;;;;;;6071533;23;19901;-82
2022/03/12 11:12:00;;;;;;;;;;;;;;;;;;6212765;23;19995;-82
2022/03/12 11:14:29;;;;;;;;;;;;;;;;;;6219819;23;19946;-81
2022/03/12 11:16:55;;;;;;;;;;;;;;;;;;6219998;23;20309;-81
2022/03/12 11:19:37;;;;;;;;;;;358.60;665.60;;;;;;6219725;23;19903;-81
2022/03/12 11:22:10;;;;;;;;;;;358.40;588.80;;;;;;6219945;23;19983;-81
2022/03/12 11:24:43;;;;;;;;;;;358.40;588.80;;;;;;6219937;23;19914;-83
2022/03/12 11:27:12;;;;;;;;;;;;;;;;;;6220174;23;19903;-84
2022/03/12 11:29:38;;;;;;;;;;;;;;;;;;6247058;23;19899;-84
2022/03/12 11:32:05;;;;;;;;;;;;;;;;;;6248832;23;19921;-85
2022/03/12 11:34:32;;;;;;;;;;;;;;;;;;6222281;23;19965;-83
2022/03/12 11:36:58;;;;;;;;;;;;;;;;;;6222202;23;19900;-83
2022/03/12 11:39:24;;;;;;;;;;;;;;;;;;6221844;23;19900;-83
2022/03/12 11:41:51;;;;;;;;;;;;;;;;;;6222138;23;19906;-83
2022/03/12 11:44:17;;;;;;;;;;;;;;;;;;6221876;23;19908;-82
2022/03/12 11:46:43;;;;;;;;;;;332.80;563.20;;;;;;6248730;23;19899;-82
2022/03/12 11:49:08;;;;;;;;;;;332.80;588.80;;;;;;6221765;23;19935;-82
2022/03/12 11:51:34;;;;;;;;;;;332.90;588.80;;;;;;6221655;23;19919;-82
2022/03/12 11:53:59;;;;;;;;;;;333.00;588.80;;;;;;6221812;23;20026;-82
2022/03/12 11:56:25;;;;;;;;;;;332.90;614.40;;;;;;6221384;23;19934;-81
2022/03/12 11:58:51;;;;;;;;;;;332.80;588.80;;;;;;6248726;23;19900;-82
2022/03/12 12:01:20;;;;;;;;;;;332.80;614.40;;;;;;6248374;23;19899;-82
2022/03/12 12:03:50;;;;;;;;;;;308.10;588.80;;;;;;6221688;23;19914;-83
2022/03/12 12:06:18;;;;;;;;;;;332.90;640.00;;;;;;6221810;23;20206;-84
2022/03/12 12:08:45;;;;;;;;;;;332.80;1152.00;;;;;;6222230;23;20340;-83
2022/03/12 12:11:11;;;;;;;;;;;;;;;;;;6221867;23;19907;-84
2022/03/12 12:13:39;;;;;;;;;;;;;;;;;;6248291;23;19899;-82
2022/03/12 12:16:05;;;;;;;;;;;;;;;;;;6221753;23;19900;-80
2022/03/12 12:18:31;;;;;;;;;;;;;;;;;;6221814;23;19903;-83
2022/03/12 12:20:57;;;;;;;;;;;;;;;;;;6248165;23;20306;-83
2022/03/12 12:23:23;;;;;;;;;;;;;;;;;;6221753;23;19914;-82
2022/03/12 12:25:49;;;;;;;;;;;;;;;;;;6249216;23;19903;-84
2022/03/12 12:28:15;;;;;;;;;;;;;;;;;;6221991;23;20313;-83
2022/03/12 12:30:43;;;;;;;;;;;;;;;;;;6222234;23;19900;-83
2022/03/12 12:33:09;;;;;;;;;;;;;;;;;;6248655;23;19942;-83
2022/03/12 12:35:35;;;;;;;;;;;;;;;;;;6221922;23;19906;-83
2022/03/12 12:38:08;;;;;;;;;;;358.70;563.20;;;;;;6248813;23;19922;-82
2022/03/12 12:40:38;;;;;;;;;;;410.10;588.80;;;;;;6248459;23;19906;-82
2022/03/12 12:43:09;;;;;;;;;;;512.20;435.20;;;;;;6247908;23;20229;-81
2022/03/12 12:45:38;;;;;;;;;;;665.80;358.40;;;;;;6248528;23;19903;-80
2022/03/12 12:48:04;;;;;;;;;;;794.20;307.20;;;;;;6248205;23;19899;-82
2022/03/12 12:50:30;;;;;;;;;;;819.90;256.00;;;;;;6247847;23;19911;-79
2022/03/12 12:53:16;;;;;;;;;;;820.00;256.00;;;;;;6221365;23;19903;-78
2022/03/12 12:55:43;;;;;;;;;;;819.40;256.00;;;;;;6245482;23;19923;-79
2022/03/12 12:58:09;;;;;;;;;;;768.80;256.00;;;;;;6221191;23;19978;-81
2022/03/12 13:00:37;;;;;;;;;;;742.80;307.20;;;;;;6221211;23;19931;-80
2022/03/12 13:03:13;;;;;;;;;;;768.00;281.60;;;;;;6247951;23;19903;-80
2022/03/12 13:05:52;;;;;;;;;;;844.80;281.60;;;;;;6211977;23;20309;-82
2022/03/12 13:08:24;;;;;;;;;;;896.70;256.00;;;;;;6219686;23;19907;-82
2022/03/12 13:10:52;;;;;;;;;;;896.70;256.00;;;;;;6213651;23;20484;-80
2022/03/12 13:13:26;;;;;;;;;;;871.30;256.00;;;;;;6220805;23;19927;-81
2022/03/12 13:15:55;;;;;;;;;;;844.90;256.00;;;;;;6220986;23;19903;-80
2022/03/12 13:18:21;;;;;;;;;;;896.20;256.00;;;;;;6247497;23;19932;-80
2022/03/12 13:20:48;;;;;;;;;;;922.40;281.60;;;;;;6221097;23;19935;-79
2022/03/12 13:23:15;;;;;;;;;;;947.70;281.60;;;;;;6220865;23;20272;-80
2022/03/12 13:25:45;;;;;;;;;;;998.90;332.80;;;;;;6219061;23;19990;-81
2022/03/12 13:28:12;;;;;;;;;;;1075.50;358.40;;;;;;6220691;23;19906;-79
2022/03/12 13:30:38;;;;;;;;;;;1101.60;384.00;;;;;;6220742;23;20228;-80
2022/03/12 13:33:06;;;;;;;;;;;1127.00;409.60;;;;;;6220466;23;19900;-81
2022/03/12 13:35:32;;;;;;;;;;;1177.70;409.60;;;;;;6220280;23;19903;-81
2022/03/12 13:37:58;;;;;;;;;;;;;;;;;;6220156;23;20210;-80
2022/03/12 13:40:25;;;;;;;;;;;1203.50;435.20;;;;;;6246503;23;19906;-81
2022/03/12 13:42:52;;;;;;;;;;;1203.80;435.20;;;;;;6217740;23;20037;-82
2022/03/12 13:45:18;;;;;;;;;;;1228.80;460.80;;;;;;6219571;23;19907;-82
2022/03/12 13:47:49;;;;;;;;;;;1228.90;460.80;;;;;;6247320;23;19900;-81
2022/03/12 13:50:16;;;;;;;;;;;1229.10;460.80;;;;;;6246914;23;19961;-83
2022/03/12 13:52:42;;;;;;;;;;;1229.10;460.80;;;;;;6247154;23;19903;-79
2022/03/12 13:55:08;;;;;;;;;;;1203.90;435.20;;;;;;6220391;23;19900;-79
2022/03/12 13:57:36;;;;;;;;;;;1228.90;460.80;;;;;;6220408;23;20037;-81
2022/03/12 14:00:09;;;;;;;;;;;1228.80;460.80;;;;;;6220474;23;19906;-80
2022/03/12 14:02:44;;;;;;;;;;;1228.80;460.80;;;;;;6247034;23;19990;-81
2022/03/12 14:05:10;;;;;;;;;;;1203.70;435.20;;;;;;6247209;23;19914;-80